Time;durP1;ratioP1;P1;durP2;ratioP2;P2;SDS_P1;SDS_P2;PMS_P1;PMS_P2;Temp;Humidity;BMP_temperature;BMP_pressure;BME280_temperature;BME280_humidity;BME280_pressure;Samples;Min_cycle;Max_cycle;Signal;HPM_P1;HPM_P2
2023/09/10 00:01:51;;;;;;;111.55;68.47;;;;;;;;;;4979478;28;20055;-87
2023/09/10 00:04:20;;;;;;;103.72;61.67;;;;;;;;;;4962947;28;20065;-87
2023/09/10 00:06:47;;;;;;;107.63;64.93;;;;;;;;;;4979934;28;20059;-86
2023/09/10 00:09:14;;;;;;;111.38;64.47;;;;;;;;;;4965826;28;20046;-86
2023/09/10 00:11:41;;;;;;;122.80;71.25;;;;;;;;;;4979950;28;20544;-87
2023/09/10 00:14:11;;;;;;;116.88;66.03;;;;;;;;;;4979828;28;20399;-87
2023/09/10 00:16:38;;;;;;;123.28;69.32;;;;;;;;;;4966423;28;20085;-87
2023/09/10 00:19:05;;;;;;;108.88;59.80;;;;;;;;;;4962817;28;20113;-87
2023/09/10 00:21:39;;;;;;;99.03;56.63;;;;;;;;;;4962514;28;20243;-87
2023/09/10 00:24:06;;;;;;;118.25;67.80;;;;;;;;;;4962912;28;20141;-87
2023/09/10 00:26:35;;;;;;;142.68;78.15;;;;;;;;;;4964726;28;20051;-86
2023/09/10 00:29:06;;;;;;;125.78;72.70;;;;;;;;;;4980861;28;20212;-87
2023/09/10 00:31:34;;;;;;;126.07;66.30;;;;;;;;;;4972406;28;20046;-87
2023/09/10 00:34:21;;;;;;;135.63;77.97;;;;;;;;;;4984043;28;20019;-87
2023/09/10 00:37:04;;;;;;;133.48;80.72;;;;;;;;;;4985959;28;20038;-88
2023/09/10 00:39:37;;;;;;;132.77;77.38;;;;;;;;;;4967047;28;20473;-87
2023/09/10 00:42:04;;;;;;;130.98;75.20;;;;;;;;;;4965745;28;20155;-87
2023/09/10 00:44:36;;;;;;;126.07;73.60;;;;;;;;;;4983355;28;20050;-87
2023/09/10 00:47:03;;;;;;;135.95;78.90;;;;;;;;;;4966453;28;20062;-87
2023/09/10 00:49:31;;;;;;;138.20;80.00;;;;;;;;;;4966016;28;20047;-87
2023/09/10 00:52:02;;;;;;;133.68;72.90;;;;;;;;;;4965806;28;20444;-87
2023/09/10 00:54:32;;;;;;;130.23;76.28;;;;;;;;;;4966445;28;20046;-87
2023/09/10 00:57:03;;;;;;;147.23;82.57;;;;;;;;;;4965942;28;20562;-87
2023/09/10 00:59:34;;;;;;;150.18;82.47;;;;;;;;;;4966429;28;20050;-87
2023/09/10 01:02:03;;;;;;;143.88;79.85;;;;;;;;;;4983306;28;20050;-86
2023/09/10 01:04:30;;;;;;;128.48;74.43;;;;;;;;;;4967580;28;20053;-87
2023/09/10 01:07:02;;;;;;;124.45;69.40;;;;;;;;;;4966706;28;20095;-87
2023/09/10 01:09:45;;;;;;;130.20;72.88;;;;;;;;;;4965440;28;20450;-87
2023/09/10 01:12:21;;;;;;;139.63;78.47;;;;;;;;;;4965313;28;20115;-86
2023/09/10 01:15:00;;;;;;;126.35;69.22;;;;;;;;;;4965889;28;20426;-87
2023/09/10 01:17:27;;;;;;;134.40;76.88;;;;;;;;;;4966401;28;20254;-87
2023/09/10 01:20:13;;;;;;;151.75;83.82;;;;;;;;;;4966646;28;20081;-87
2023/09/10 01:22:46;;;;;;;142.52;77.25;;;;;;;;;;4983360;28;20071;-87
2023/09/10 01:25:16;;;;;;;120.15;66.00;;;;;;;;;;4967358;28;20162;-87
2023/09/10 01:27:46;;;;;;;145.57;81.78;;;;;;;;;;4966905;28;20137;-86
2023/09/10 01:30:14;;;;;;;126.22;71.63;;;;;;;;;;4968608;28;20054;-86
2023/09/10 01:32:54;;;;;;;145.98;80.13;;;;;;;;;;4968918;28;20054;-87
2023/09/10 01:35:26;;;;;;;138.75;76.97;;;;;;;;;;4969955;28;20085;-86
2023/09/10 01:38:10;;;;;;;165.55;89.43;;;;;;;;;;4972477;28;20587;-86
2023/09/10 01:41:10;;;;;;;137.90;77.22;;;;;;;;;;4985359;28;20063;-87
2023/09/10 01:43:58;;;;;;;123.22;68.63;;;;;;;;;;5012710;28;20078;-88
2023/09/10 01:46:41;;;;;;;135.30;72.43;;;;;;;;;;4998485;28;20106;-88
2023/09/10 01:49:24;;;;;;;140.70;77.05;;;;;;;;;;4985338;28;20039;-87
2023/09/10 01:52:15;;;;;;;122.85;70.25;;;;;;;;;;4984205;28;20039;-88
2023/09/10 01:55:00;;;;;;;137.00;78.40;;;;;;;;;;4998132;28;20026;-88
2023/09/10 01:57:41;;;;;;;138.48;76.97;;;;;;;;;;4997777;28;20031;-87
2023/09/10 02:00:22;;;;;;;148.68;80.43;;;;;;;;;;4983037;28;20066;-87
2023/09/10 02:16:42;;;;;;;146.98;78.32;;;;;;;;;;5017959;28;20034;-88
2023/09/10 02:19:24;;;;;;;158.00;82.72;;;;;;;;;;5003694;28;20042;-87
2023/09/10 02:25:34;;;;;;;145.10;78.78;;;;;;;;;;5018832;28;20029;-88
2023/09/10 02:28:21;;;;;;;155.85;87.90;;;;;;;;;;5003049;28;20704;-87
2023/09/10 02:31:08;;;;;;;138.68;76.85;;;;;;;;;;5002838;28;20038;-87
2023/09/10 02:34:07;;;;;;;148.27;81.35;;;;;;;;;;5003190;28;20037;-88
2023/09/10 02:36:48;;;;;;;155.65;85.72;;;;;;;;;;5003078;28;20033;-87
2023/09/10 02:39:29;;;;;;;164.98;88.13;;;;;;;;;;5003849;28;20098;-87
2023/09/10 02:42:11;;;;;;;159.30;88.95;;;;;;;;;;5003154;28;20030;-88
2023/09/10 02:44:53;;;;;;;154.32;86.75;;;;;;;;;;5002864;28;20031;-88
2023/09/10 02:47:35;;;;;;;160.43;88.50;;;;;;;;;;5002633;28;20175;-88
2023/09/10 02:50:16;;;;;;;178.13;94.57;;;;;;;;;;5002477;28;20030;-87
2023/09/10 02:52:59;;;;;;;192.73;97.85;;;;;;;;;;5002715;28;20041;-87
2023/09/10 02:55:39;;;;;;;199.60;97.60;;;;;;;;;;5002603;28;20038;-88
2023/09/10 02:58:21;;;;;;;172.02;90.30;;;;;;;;;;5001964;28;20046;-88
2023/09/10 03:01:32;;;;;;;184.80;91.28;;;;;;;;;;5017802;28;20023;-88
2023/09/10 03:04:14;;;;;;;187.43;92.45;;;;;;;;;;5003383;28;20058;-88
2023/09/10 03:06:44;;;;;;;189.68;90.55;;;;;;;;;;5018866;28;20235;-87
2023/09/10 03:09:15;;;;;;;161.68;83.20;;;;;;;;;;5018798;28;20042;-88
2023/09/10 03:11:47;;;;;;;170.82;86.13;;;;;;;;;;5018950;28;20121;-88
2023/09/10 03:14:28;;;;;;;200.20;84.90;;;;;;;;;;5002342;28;20042;-88
2023/09/10 03:17:29;;;;;;;169.27;83.53;;;;;;;;;;4979919;28;20050;-89
2023/09/10 03:20:04;;;;;;;168.05;81.97;;;;;;;;;;4978861;28;20095;-89
2023/09/10 03:22:35;;;;;;;169.18;82.22;;;;;;;;;;4978713;28;20051;-89
2023/09/10 03:25:11;;;;;;;183.93;81.32;;;;;;;;;;4979093;28;20051;-87
2023/09/10 03:27:40;;;;;;;154.55;81.97;;;;;;;;;;4979220;28;20039;-87
2023/09/10 03:30:20;;;;;;;158.32;79.00;;;;;;;;;;4978369;28;20066;-87
2023/09/10 03:33:01;;;;;;;176.20;81.57;;;;;;;;;;4979636;28;20141;-89
2023/09/10 03:35:32;;;;;;;155.35;78.88;;;;;;;;;;4969505;28;20431;-89
2023/09/10 03:38:02;;;;;;;168.90;79.88;;;;;;;;;;4965757;29;20054;-88
2023/09/10 03:40:30;;;;;;;174.45;88.70;;;;;;;;;;4973588;28;20043;-89
2023/09/10 03:43:00;;;;;;;178.05;87.05;;;;;;;;;;4974173;28;20043;-89
2023/09/10 03:45:34;;;;;;;166.13;80.88;;;;;;;;;;4974717;28;20215;-88
2023/09/10 03:48:04;;;;;;;160.82;83.30;;;;;;;;;;4975718;28;20050;-88
2023/09/10 03:53:53;;;;;;;161.43;81.88;;;;;;;;;;4966444;29;20038;-88
2023/09/10 03:56:21;;;;;;;157.32;79.80;;;;;;;;;;4965063;28;20062;-89
2023/09/10 03:58:52;;;;;;;160.80;82.88;;;;;;;;;;4964757;29;20055;-89
2023/09/10 04:01:25;;;;;;;141.40;75.15;;;;;;;;;;4965056;28;20119;-88
2023/09/10 04:03:53;;;;;;;169.45;80.65;;;;;;;;;;4963319;28;20087;-88
2023/09/10 04:06:20;;;;;;;153.73;78.75;;;;;;;;;;4963340;29;20086;-89
2023/09/10 04:08:48;;;;;;;164.25;78.40;;;;;;;;;;4963724;28;20055;-88
2023/09/10 04:11:16;;;;;;;166.55;79.05;;;;;;;;;;4961404;29;20069;-88
2023/09/10 04:13:44;;;;;;;147.10;77.13;;;;;;;;;;4962899;29;20071;-89
2023/09/10 04:16:16;;;;;;;144.65;71.82;;;;;;;;;;4975400;28;20122;-89
2023/09/10 04:18:44;;;;;;;143.45;74.15;;;;;;;;;;4995497;28;20073;-88
2023/09/10 04:21:15;;;;;;;123.97;67.93;;;;;;;;;;4981071;28;20050;-90
2023/09/10 04:23:42;;;;;;;112.50;65.60;;;;;;;;;;4980943;28;20055;-89
2023/09/10 04:26:13;;;;;;;132.70;70.07;;;;;;;;;;4983837;28;20069;-89
2023/09/10 04:28:43;;;;;;;132.98;70.70;;;;;;;;;;4980736;28;20098;-89
2023/09/10 04:31:16;;;;;;;134.05;75.68;;;;;;;;;;4981900;28;20119;-90
2023/09/10 04:33:44;;;;;;;125.90;70.60;;;;;;;;;;4981073;28;20053;-87
2023/09/10 04:36:11;;;;;;;120.25;68.32;;;;;;;;;;4982430;28;20054;-88
2023/09/10 04:38:42;;;;;;;132.18;71.38;;;;;;;;;;5000587;28;20069;-88
2023/09/10 04:41:09;;;;;;;122.80;68.72;;;;;;;;;;4983062;28;20110;-89
2023/09/10 04:43:37;;;;;;;127.78;69.88;;;;;;;;;;4982202;28;20062;-89
2023/09/10 04:46:04;;;;;;;125.90;68.28;;;;;;;;;;4980932;28;20253;-89
2023/09/10 04:48:33;;;;;;;127.15;70.43;;;;;;;;;;4979822;28;20077;-89
2023/09/10 04:51:02;;;;;;;140.13;69.40;;;;;;;;;;4984286;28;20118;-89
2023/09/10 04:53:29;;;;;;;145.38;74.47;;;;;;;;;;4981286;28;20047;-89
2023/09/10 04:55:59;;;;;;;122.63;64.07;;;;;;;;;;4981603;28;20513;-89
2023/09/10 04:58:26;;;;;;;122.97;68.78;;;;;;;;;;4984166;28;20114;-89
2023/09/10 05:00:53;;;;;;;127.85;67.22;;;;;;;;;;4982496;28;20058;-89
2023/09/10 05:03:21;;;;;;;144.88;69.78;;;;;;;;;;4983587;28;20126;-89
2023/09/10 05:05:55;;;;;;;122.72;65.80;;;;;;;;;;4981458;28;20059;-89
2023/09/10 05:08:21;;;;;;;131.43;69.43;;;;;;;;;;4982800;28;20050;-90
2023/09/10 05:10:53;;;;;;;142.05;69.72;;;;;;;;;;4982524;28;20389;-89
2023/09/10 05:13:30;;;;;;;122.22;64.63;;;;;;;;;;4981580;28;20066;-89
2023/09/10 05:15:58;;;;;;;122.65;66.75;;;;;;;;;;4999325;28;20073;-89
2023/09/10 05:18:27;;;;;;;123.28;66.72;;;;;;;;;;4985074;28;20136;-89
2023/09/10 05:20:55;;;;;;;130.15;66.72;;;;;;;;;;4984689;28;20089;-89
2023/09/10 05:23:35;;;;;;;126.60;65.38;;;;;;;;;;4990474;28;20049;-88
2023/09/10 05:26:03;;;;;;;129.60;66.97;;;;;;;;;;4988537;28;20058;-89
2023/09/10 05:28:30;;;;;;;123.15;59.85;;;;;;;;;;5003841;28;20449;-89
2023/09/10 05:31:08;;;;;;;137.57;67.30;;;;;;;;;;5004602;28;20093;-89
2023/09/10 05:33:41;;;;;;;119.53;63.45;;;;;;;;;;5002959;28;20153;-89
2023/09/10 05:36:08;;;;;;;127.70;64.75;;;;;;;;;;4986510;28;20280;-89
2023/09/10 05:38:35;;;;;;;118.40;61.72;;;;;;;;;;4986625;28;20141;-89
2023/09/10 05:41:04;;;;;;;141.73;66.75;;;;;;;;;;5003551;28;20074;-86
2023/09/10 05:43:31;;;;;;;124.18;60.40;;;;;;;;;;4985662;28;20202;-87
2023/09/10 05:45:59;;;;;;;133.48;65.68;;;;;;;;;;4985749;28;20057;-87
2023/09/10 05:48:33;;;;;;;131.02;65.88;;;;;;;;;;4987008;28;20295;-87
2023/09/10 05:51:01;;;;;;;128.63;62.72;;;;;;;;;;4986831;28;20133;-87
2023/09/10 05:53:36;;;;;;;122.95;62.60;;;;;;;;;;4986137;28;20046;-86
2023/09/10 05:56:04;;;;;;;116.53;58.88;;;;;;;;;;4985737;28;20061;-85
2023/09/10 05:58:31;;;;;;;126.55;61.55;;;;;;;;;;4986371;28;20074;-86
2023/09/10 06:01:01;;;;;;;120.10;60.05;;;;;;;;;;4985652;28;20318;-85
2023/09/10 06:03:31;;;;;;;113.95;57.00;;;;;;;;;;4988028;28;20050;-85
2023/09/10 06:06:04;;;;;;;115.88;59.85;;;;;;;;;;4990393;28;20054;-86
2023/09/10 06:08:35;;;;;;;111.63;57.97;;;;;;;;;;5005795;28;20038;-87
2023/09/10 06:11:17;;;;;;;123.32;60.60;;;;;;;;;;5002723;28;20058;-87
2023/09/10 06:13:59;;;;;;;129.95;59.53;;;;;;;;;;5010492;23;20054;-85
2023/09/10 06:16:53;;;;;;;133.02;62.70;;;;;;;;;;5005200;28;20054;-86
2023/09/10 06:19:21;;;;;;;130.43;61.83;;;;;;;;;;4982024;28;20057;-86
2023/09/10 06:21:50;;;;;;;139.82;65.13;;;;;;;;;;4979791;28;20247;-86
2023/09/10 06:24:18;;;;;;;143.82;67.57;;;;;;;;;;4981225;28;20105;-86
2023/09/10 06:26:47;;;;;;;148.20;63.53;;;;;;;;;;4981682;28;20042;-86
2023/09/10 06:29:27;;;;;;;131.13;59.78;;;;;;;;;;4982648;28;20169;-86
2023/09/10 06:32:00;;;;;;;128.32;60.88;;;;;;;;;;4982417;28;20067;-86
2023/09/10 06:34:39;;;;;;;135.57;61.47;;;;;;;;;;4980996;28;20058;-86
2023/09/10 06:37:09;;;;;;;117.45;56.67;;;;;;;;;;4981135;28;20046;-86
2023/09/10 06:39:39;;;;;;;102.68;54.83;;;;;;;;;;4980348;28;20495;-86
2023/09/10 06:42:07;;;;;;;113.28;52.72;;;;;;;;;;4980754;28;20055;-86
2023/09/10 06:44:35;;;;;;;100.28;50.35;;;;;;;;;;4980963;28;20077;-86
2023/09/10 06:47:09;;;;;;;107.55;49.95;;;;;;;;;;4979421;28;20133;-86
2023/09/10 06:49:38;;;;;;;86.20;46.78;;;;;;;;;;4981117;28;20050;-86
2023/09/10 06:52:09;;;;;;;100.25;49.03;;;;;;;;;;4982046;28;20051;-86
2023/09/10 06:54:41;;;;;;;95.13;46.80;;;;;;;;;;4981306;28;20051;-87
2023/09/10 06:57:13;;;;;;;97.72;45.25;;;;;;;;;;4980409;28;20050;-87
2023/09/10 06:59:41;;;;;;;87.30;46.83;;;;;;;;;;4980493;28;20050;-86
2023/09/10 07:02:12;;;;;;;94.30;48.83;;;;;;;;;;4980846;28;20072;-86
2023/09/10 07:04:47;;;;;;;101.20;47.75;;;;;;;;;;4981362;28;20074;-86
2023/09/10 07:07:20;;;;;;;97.30;48.95;;;;;;;;;;4978769;28;20117;-87
2023/09/10 07:09:47;;;;;;;91.47;46.85;;;;;;;;;;4978786;28;20047;-86
2023/09/10 07:12:16;;;;;;;92.57;48.80;;;;;;;;;;4979335;28;20097;-87
2023/09/10 07:14:45;;;;;;;81.68;45.20;;;;;;;;;;4978105;28;20054;-86
2023/09/10 07:17:26;;;;;;;87.63;46.75;;;;;;;;;;4989301;28;20308;-86
2023/09/10 07:19:56;;;;;;;79.65;42.85;;;;;;;;;;4976162;28;20050;-86
2023/09/10 07:22:31;;;;;;;90.55;45.28;;;;;;;;;;4980031;28;20039;-86
2023/09/10 07:25:02;;;;;;;78.03;41.67;;;;;;;;;;4978051;28;20078;-85
2023/09/10 07:27:30;;;;;;;86.20;44.08;;;;;;;;;;4976962;28;20055;-86
2023/09/10 07:30:00;;;;;;;68.50;39.15;;;;;;;;;;4979989;28;20193;-86
2023/09/10 07:32:28;;;;;;;68.72;37.20;;;;;;;;;;4978138;28;20142;-86
2023/09/10 07:34:57;;;;;;;60.35;35.97;;;;;;;;;;4974768;28;20057;-86
2023/09/10 07:37:25;;;;;;;53.28;33.30;;;;;;;;;;4975466;28;20078;-86
2023/09/10 07:39:53;;;;;;;55.65;31.13;;;;;;;;;;4975109;28;20046;-86
2023/09/10 07:42:21;;;;;;;60.00;34.50;;;;;;;;;;4973841;28;20421;-86
2023/09/10 07:44:51;;;;;;;54.78;31.13;;;;;;;;;;4973828;28;20109;-86
2023/09/10 07:50:40;;;;;;;63.78;34.95;;;;;;;;;;4973868;28;20092;-85
2023/09/10 07:53:08;;;;;;;73.85;41.90;;;;;;;;;;4972897;28;20132;-86
2023/09/10 07:55:35;;;;;;;81.05;43.72;;;;;;;;;;4973676;28;20244;-86
2023/09/10 07:58:11;;;;;;;74.30;44.78;;;;;;;;;;4973404;28;20062;-85
2023/09/10 08:00:38;;;;;;;84.80;45.55;;;;;;;;;;4974163;28;20514;-86
2023/09/10 08:03:06;;;;;;;86.05;46.10;;;;;;;;;;4975086;28;20090;-86
2023/09/10 08:05:34;;;;;;;85.82;46.78;;;;;;;;;;4975622;28;20065;-86
2023/09/10 08:08:04;;;;;;;75.85;44.53;;;;;;;;;;4974588;28;20113;-87
2023/09/10 08:10:40;;;;;;;79.72;45.17;;;;;;;;;;4975927;28;20047;-86
2023/09/10 08:13:12;;;;;;;84.63;47.70;;;;;;;;;;4976627;28;20137;-86
2023/09/10 08:15:41;;;;;;;94.75;49.88;;;;;;;;;;4979005;28;20680;-86
2023/09/10 08:18:16;;;;;;;84.25;48.95;;;;;;;;;;4978946;28;20089;-87
2023/09/10 08:20:57;;;;;;;93.65;49.88;;;;;;;;;;4991979;28;20519;-86
2023/09/10 08:23:34;;;;;;;86.18;47.75;;;;;;;;;;4978705;28;20118;-86
2023/09/10 08:26:02;;;;;;;90.82;48.45;;;;;;;;;;4979194;28;20093;-86
2023/09/10 08:28:31;;;;;;;87.53;48.08;;;;;;;;;;4996378;28;20061;-86
2023/09/10 08:31:11;;;;;;;80.75;48.42;;;;;;;;;;4977935;28;20171;-86
2023/09/10 08:33:39;;;;;;;80.18;46.00;;;;;;;;;;4976780;28;20074;-86
2023/09/10 08:36:12;;;;;;;71.38;41.47;;;;;;;;;;4979621;28;20199;-86
2023/09/10 08:38:41;;;;;;;73.60;42.78;;;;;;;;;;4982788;28;20054;-86
2023/09/10 08:41:35;;;;;;;81.57;42.78;;;;;;;;;;5001107;28;20058;-86
2023/09/10 08:44:04;;;;;;;89.32;47.28;;;;;;;;;;4975947;28;20221;-85
2023/09/10 08:46:32;;;;;;;89.13;46.60;;;;;;;;;;4976735;28;20141;-86
2023/09/10 08:49:01;;;;;;;78.80;45.67;;;;;;;;;;4974748;28;20050;-86
2023/09/10 08:51:29;;;;;;;80.22;46.47;;;;;;;;;;4975660;28;20113;-86
2023/09/10 08:54:02;;;;;;;73.22;45.20;;;;;;;;;;4974337;28;20038;-86
2023/09/10 08:56:31;;;;;;;75.60;44.50;;;;;;;;;;4978998;28;20389;-86
2023/09/10 08:59:00;;;;;;;71.70;44.15;;;;;;;;;;4979598;28;20232;-86
2023/09/10 09:01:30;;;;;;;64.65;41.25;;;;;;;;;;4977646;28;20058;-87
2023/09/10 09:04:01;;;;;;;68.75;38.03;;;;;;;;;;4980393;28;20054;-87
2023/09/10 09:06:36;;;;;;;57.58;38.40;;;;;;;;;;4996150;28;20050;-86
2023/09/10 09:09:06;;;;;;;55.63;36.65;;;;;;;;;;4981184;28;20074;-86
2023/09/10 09:11:41;;;;;;;44.92;30.85;;;;;;;;;;4980196;28;20050;-86
2023/09/10 09:14:09;;;;;;;39.97;28.60;;;;;;;;;;4977093;28;20062;-86
2023/09/10 09:16:38;;;;;;;39.97;25.98;;;;;;;;;;5016226;28;20240;-86
2023/09/10 09:19:11;;;;;;;29.25;20.40;;;;;;;;;;4990574;28;20054;-87
2023/09/10 09:24:22;;;;;;;22.33;13.98;;;;;;;;;;5127989;23;20191;-87
2023/09/10 09:26:52;;;;;;;18.67;14.30;;;;;;;;;;5010736;28;20045;-87
2023/09/10 09:29:19;;;;;;;20.25;14.52;;;;;;;;;;4999571;28;20041;-87
2023/09/10 09:31:47;;;;;;;19.52;13.85;;;;;;;;;;5000546;28;20050;-87
2023/09/10 09:34:18;;;;;;;19.38;12.68;;;;;;;;;;5017109;28;20103;-87
2023/09/10 09:36:53;;;;;;;16.58;10.85;;;;;;;;;;5000916;28;20042;-87
2023/09/10 09:39:34;;;;;;;14.65;10.52;;;;;;;;;;5002875;28;20046;-87
2023/09/10 09:42:04;;;;;;;18.05;10.85;;;;;;;;;;4999235;28;20045;-87
2023/09/10 09:44:33;;;;;;;15.23;11.40;;;;;;;;;;4998958;28;20053;-87
2023/09/10 09:47:06;;;;;;;14.95;9.68;;;;;;;;;;4997742;28;20092;-87
2023/09/10 09:49:42;;;;;;;13.52;9.63;;;;;;;;;;4996409;28;20046;-87
2023/09/10 09:52:10;;;;;;;14.32;9.18;;;;;;;;;;4996501;28;20151;-86
2023/09/10 09:54:39;;;;;;;14.57;8.98;;;;;;;;;;5007728;28;20117;-89
2023/09/10 10:00:23;;;;;;;12.83;9.40;;;;;;;;;;5014716;28;20122;-90
2023/09/10 10:02:53;;;;;;;15.50;8.35;;;;;;;;;;5000444;28;20064;-90
2023/09/10 10:05:21;;;;;;;14.05;8.90;;;;;;;;;;5017489;28;20053;-89
2023/09/10 10:07:53;;;;;;;14.68;8.90;;;;;;;;;;4996245;28;20144;-90
2023/09/10 10:10:27;;;;;;;13.70;8.57;;;;;;;;;;4997119;28;20303;-90
2023/09/10 10:16:15;;;;;;;9.93;7.75;;;;;;;;;;5014694;28;20042;-91
2023/09/10 10:18:43;;;;;;;14.63;7.93;;;;;;;;;;4997147;28;20417;-90
2023/09/10 10:21:12;;;;;;;12.68;7.97;;;;;;;;;;4994067;28;20248;-90
2023/09/10 10:23:40;;;;;;;14.25;6.88;;;;;;;;;;5010551;28;20073;-90
2023/09/10 10:26:12;;;;;;;18.05;7.35;;;;;;;;;;5000910;28;20049;-90
2023/09/10 10:28:48;;;;;;;10.93;7.38;;;;;;;;;;4994750;28;20369;-90
2023/09/10 10:31:28;;;;;;;14.35;7.57;;;;;;;;;;5013955;28;20054;-90
2023/09/10 10:34:03;;;;;;;10.63;7.25;;;;;;;;;;5013972;28;20270;-90
2023/09/10 10:36:53;;;;;;;11.68;7.72;;;;;;;;;;5015572;28;20145;-90
2023/09/10 10:39:30;;;;;;;11.27;7.45;;;;;;;;;;5017513;28;20056;-90
2023/09/10 10:41:59;;;;;;;10.60;7.15;;;;;;;;;;5032271;28;20081;-90
2023/09/10 10:44:33;;;;;;;12.27;8.23;;;;;;;;;;5012756;28;20515;-90
2023/09/10 10:47:27;;;;;;;13.18;7.30;;;;;;;;;;5013463;28;20057;-90
2023/09/10 10:50:09;;;;;;;11.57;7.55;;;;;;;;;;4996929;28;20104;-90
2023/09/10 10:52:56;;;;;;;13.65;8.18;;;;;;;;;;4997433;28;20153;-90
2023/09/10 10:55:24;;;;;;;11.10;7.65;;;;;;;;;;4999115;28;20050;-90
2023/09/10 10:58:00;;;;;;;12.82;7.95;;;;;;;;;;5013052;28;20050;-90
2023/09/10 11:00:30;;;;;;;11.05;7.05;;;;;;;;;;4998546;28;20100;-91
2023/09/10 11:03:14;;;;;;;11.68;7.72;;;;;;;;;;4998192;28;20058;-90
2023/09/10 11:05:57;;;;;;;11.27;7.40;;;;;;;;;;5017325;28;20063;-90
2023/09/10 11:08:37;;;;;;;34.88;7.53;;;;;;;;;;5017535;28;20144;-90
2023/09/10 11:11:06;;;;;;;10.73;7.65;;;;;;;;;;5018083;28;20155;-89
2023/09/10 11:13:37;;;;;;;11.38;7.60;;;;;;;;;;4999807;28;20173;-90
2023/09/10 11:16:09;;;;;;;11.50;7.35;;;;;;;;;;4995688;28;20150;-89
2023/09/10 11:18:42;;;;;;;10.50;7.32;;;;;;;;;;4995928;28;20046;-90
2023/09/10 11:21:12;;;;;;;11.88;8.13;;;;;;;;;;4994671;28;20332;-90
2023/09/10 11:24:01;;;;;;;12.07;6.43;;;;;;;;;;4992333;28;20073;-90
2023/09/10 11:26:32;;;;;;;11.90;8.43;;;;;;;;;;4992049;28;20077;-90
2023/09/10 11:29:03;;;;;;;12.10;7.28;;;;;;;;;;4993360;28;20065;-90
2023/09/10 11:31:38;;;;;;;11.68;7.07;;;;;;;;;;4994317;28;20064;-90
2023/09/10 11:34:28;;;;;;;12.40;8.02;;;;;;;;;;4993237;28;20342;-91
2023/09/10 11:37:23;;;;;;;13.07;7.47;;;;;;;;;;4998786;28;20186;-90
2023/09/10 11:40:02;;;;;;;13.13;7.82;;;;;;;;;;4991487;28;20062;-88
2023/09/10 11:42:35;;;;;;;13.90;7.78;;;;;;;;;;4993422;28;20081;-90
2023/09/10 11:45:04;;;;;;;14.57;10.30;;;;;;;;;;4992386;28;20146;-90
2023/09/10 11:47:41;;;;;;;18.75;10.98;;;;;;;;;;4989584;28;20046;-91
2023/09/10 11:50:09;;;;;;;14.88;8.02;;;;;;;;;;4991059;28;20262;-91
2023/09/10 11:52:39;;;;;;;12.45;8.20;;;;;;;;;;4991664;28;20072;-91
2023/09/10 11:55:09;;;;;;;14.38;9.10;;;;;;;;;;4991390;28;20312;-91
2023/09/10 11:57:40;;;;;;;15.57;10.15;;;;;;;;;;4991036;28;20058;-89
2023/09/10 12:00:11;;;;;;;21.42;10.10;;;;;;;;;;4991907;28;20066;-89
2023/09/10 12:02:40;;;;;;;19.98;10.02;;;;;;;;;;4999044;28;20107;-90
2023/09/10 12:05:38;;;;;;;17.52;10.70;;;;;;;;;;4992427;28;20053;-90
2023/09/10 12:08:09;;;;;;;20.98;13.13;;;;;;;;;;4992436;28;20058;-90
2023/09/10 12:10:41;;;;;;;23.17;14.40;;;;;;;;;;5006184;28;20046;-90
2023/09/10 12:13:19;;;;;;;20.63;12.55;;;;;;;;;;4991732;28;20241;-89
2023/09/10 12:15:58;;;;;;;20.20;10.48;;;;;;;;;;4991188;28;20046;-90
2023/09/10 12:18:26;;;;;;;18.48;10.07;;;;;;;;;;4989139;28;20127;-90
2023/09/10 12:20:59;;;;;;;20.90;11.98;;;;;;;;;;4991796;28;20119;-90
2023/09/10 12:23:27;;;;;;;22.45;13.27;;;;;;;;;;4995871;28;20190;-90
2023/09/10 12:26:07;;;;;;;21.10;11.93;;;;;;;;;;4999211;28;20572;-90
2023/09/10 12:28:34;;;;;;;16.73;11.55;;;;;;;;;;5000069;28;20139;-89
2023/09/10 12:31:04;;;;;;;26.33;13.93;;;;;;;;;;4998879;28;20429;-90
2023/09/10 12:33:36;;;;;;;28.58;16.58;;;;;;;;;;4994639;28;20523;-89
2023/09/10 12:36:05;;;;;;;28.25;16.15;;;;;;;;;;5012878;28;20211;-90
2023/09/10 12:38:33;;;;;;;27.45;15.63;;;;;;;;;;4993122;28;20054;-89
2023/09/10 12:41:00;;;;;;;29.95;17.88;;;;;;;;;;4994160;28;20145;-90
2023/09/10 12:43:28;;;;;;;26.48;14.18;;;;;;;;;;4993771;28;20073;-89
2023/09/10 12:45:56;;;;;;;30.42;16.45;;;;;;;;;;4994444;28;20444;-90
2023/09/10 12:48:23;;;;;;;34.58;18.38;;;;;;;;;;5011889;28;20053;-89
2023/09/10 12:50:50;;;;;;;30.60;17.10;;;;;;;;;;4994001;28;20096;-89
2023/09/10 12:53:19;;;;;;;33.30;16.88;;;;;;;;;;4994350;28;20073;-87
2023/09/10 12:55:48;;;;;;;30.23;17.48;;;;;;;;;;4996252;28;20307;-86
2023/09/10 12:58:20;;;;;;;31.83;17.48;;;;;;;;;;4992131;28;20061;-88
2023/09/10 13:00:55;;;;;;;29.30;16.90;;;;;;;;;;4994696;28;20045;-88
2023/09/10 13:03:25;;;;;;;32.60;17.60;;;;;;;;;;4995262;28;20054;-88
2023/09/10 13:05:52;;;;;;;29.58;16.48;;;;;;;;;;4992716;28;20121;-88
2023/09/10 13:08:30;;;;;;;32.75;19.38;;;;;;;;;;4995867;28;20160;-88
2023/09/10 13:11:00;;;;;;;31.00;18.52;;;;;;;;;;4994984;28;20382;-88
2023/09/10 13:13:28;;;;;;;34.03;17.88;;;;;;;;;;4993039;28;20046;-88
2023/09/10 13:15:58;;;;;;;30.85;17.33;;;;;;;;;;5009079;28;20046;-89
2023/09/10 13:18:26;;;;;;;28.25;15.45;;;;;;;;;;4992245;28;20045;-88
2023/09/10 13:20:56;;;;;;;23.08;14.38;;;;;;;;;;4992541;28;20045;-88
2023/09/10 13:23:26;;;;;;;23.80;13.93;;;;;;;;;;4992978;28;20050;-89
2023/09/10 13:25:54;;;;;;;22.75;13.73;;;;;;;;;;4991894;28;20053;-88
2023/09/10 13:28:22;;;;;;;23.85;15.45;;;;;;;;;;4992386;28;20121;-88
2023/09/10 13:30:53;;;;;;;20.05;13.05;;;;;;;;;;4996428;28;20137;-88
2023/09/10 13:33:27;;;;;;;21.80;13.43;;;;;;;;;;4994765;28;20064;-87
2023/09/10 13:35:56;;;;;;;22.30;13.30;;;;;;;;;;4994699;28;20407;-88
2023/09/10 13:38:23;;;;;;;20.05;12.52;;;;;;;;;;4995203;28;20095;-88
2023/09/10 13:40:56;;;;;;;20.40;13.25;;;;;;;;;;4997404;28;20361;-88
2023/09/10 13:43:24;;;;;;;21.42;12.10;;;;;;;;;;5014891;28;20046;-87
2023/09/10 13:45:54;;;;;;;24.10;13.65;;;;;;;;;;5002962;28;20142;-88
2023/09/10 13:48:24;;;;;;;17.80;11.52;;;;;;;;;;4999664;28;20081;-87
2023/09/10 13:50:51;;;;;;;21.27;12.48;;;;;;;;;;4996947;28;20201;-87
2023/09/10 13:53:24;;;;;;;23.73;13.88;;;;;;;;;;4998096;28;20072;-87
2023/09/10 13:55:52;;;;;;;22.90;13.20;;;;;;;;;;4997568;28;20410;-88
2023/09/10 13:58:24;;;;;;;19.17;12.88;;;;;;;;;;4997425;28;20180;-87
2023/09/10 14:00:51;;;;;;;20.60;12.82;;;;;;;;;;5000898;28;20097;-91
2023/09/10 14:03:26;;;;;;;23.13;11.98;;;;;;;;;;5016678;28;20058;-90
2023/09/10 14:05:53;;;;;;;18.92;13.05;;;;;;;;;;4997437;28;20076;-90
2023/09/10 14:08:24;;;;;;;20.27;12.25;;;;;;;;;;4998637;28;20049;-89
2023/09/10 14:10:52;;;;;;;18.55;11.77;;;;;;;;;;5000171;28;20054;-89
2023/09/10 14:13:24;;;;;;;20.90;11.07;;;;;;;;;;4998985;28;20054;-90
2023/09/10 14:15:53;;;;;;;18.48;10.25;;;;;;;;;;5016010;28;20455;-90
2023/09/10 14:18:29;;;;;;;17.58;10.95;;;;;;;;;;4998827;28;20080;-90
2023/09/10 14:20:56;;;;;;;22.40;11.63;;;;;;;;;;4995709;28;20050;-89
2023/09/10 14:23:31;;;;;;;18.90;11.55;;;;;;;;;;5023215;28;20157;-89
2023/09/10 14:26:01;;;;;;;21.35;11.77;;;;;;;;;;4996981;28;20227;-90
2023/09/10 14:28:29;;;;;;;15.88;10.43;;;;;;;;;;4996933;28;20446;-89
2023/09/10 14:30:59;;;;;;;17.98;10.98;;;;;;;;;;5001853;28;20220;-90
2023/09/10 14:33:29;;;;;;;19.23;11.57;;;;;;;;;;5003751;28;20115;-90
2023/09/10 14:36:04;;;;;;;15.40;11.18;;;;;;;;;;5019632;28;20042;-89
2023/09/10 14:38:33;;;;;;;17.15;10.52;;;;;;;;;;5005023;28;20045;-89
2023/09/10 14:41:00;;;;;;;15.88;11.05;;;;;;;;;;5023190;28;20050;-89
2023/09/10 14:43:28;;;;;;;17.33;11.15;;;;;;;;;;5001809;28;20047;-89
2023/09/10 14:45:57;;;;;;;19.80;12.82;;;;;;;;;;4996731;28;20085;-91
2023/09/10 14:48:24;;;;;;;20.40;12.70;;;;;;;;;;4996592;28;20050;-90
2023/09/10 14:50:51;;;;;;;19.80;12.10;;;;;;;;;;5000117;28;20050;-89
2023/09/10 14:53:19;;;;;;;25.92;15.90;;;;;;;;;;5018306;28;20184;-89
2023/09/10 14:55:56;;;;;;;;;;;;;;;;;;5005950;28;20065;-89
2023/09/10 14:58:25;;;;;;;23.30;15.48;;;;;;;;;;4999592;28;19922;-89
2023/09/10 15:00:56;;;;;;;18.45;13.57;;;;;;;;;;5001619;28;20076;-89
2023/09/10 15:03:23;;;;;;;28.85;17.60;;;;;;;;;;4997439;28;20244;-89
2023/09/10 15:05:55;;;;;;;26.83;16.13;;;;;;;;;;4995304;28;20127;-90
2023/09/10 15:08:34;;;;;;;23.02;15.02;;;;;;;;;;4997042;28;20088;-90
2023/09/10 15:11:01;;;;;;;23.92;15.77;;;;;;;;;;4995690;28;20131;-90
2023/09/10 15:13:32;;;;;;;23.05;15.35;;;;;;;;;;4998751;28;20150;-90
2023/09/10 15:16:00;;;;;;;22.25;14.95;;;;;;;;;;4993910;28;20050;-90
2023/09/10 15:18:45;;;;;;;26.30;15.02;;;;;;;;;;4996782;28;20064;-90